Time;durP1;ratioP1;P1;durP2;ratioP2;P2;SDS_P1;SDS_P2;PMS_P1;PMS_P2;Temp;Humidity;BMP_temperature;BMP_pressure;BME280_temperature;BME280_humidity;BME280_pressure;Samples;Min_cycle;Max_cycle;Signal;HPM_P1;HPM_P2
2024/01/05 00:01:08;;;;;;;5.30;1.50;;;16.70;50.10;;;;;;5095671;28;20277;-63
2024/01/05 00:03:34;;;;;;;3.60;1.40;;;16.70;50.10;;;;;;5095912;28;20305;-63
2024/01/05 00:06:01;;;;;;;6.55;1.40;;;16.70;50.10;;;;;;5095749;28;20305;-63
2024/01/05 00:08:28;;;;;;;4.03;1.20;;;16.70;50.10;;;;;;5095453;28;20301;-62
2024/01/05 00:10:55;;;;;;;4.25;1.52;;;16.70;50.00;;;;;;5095793;28;20265;-63
2024/01/05 00:13:24;;;;;;;2.70;1.30;;;16.70;50.00;;;;;;5095539;28;20210;-63
2024/01/05 00:15:50;;;;;;;3.67;1.10;;;16.70;49.90;;;;;;5095156;28;20277;-62
2024/01/05 00:18:17;;;;;;;2.58;1.10;;;16.70;49.90;;;;;;5095584;28;20427;-62
2024/01/05 00:20:44;;;;;;;5.07;1.63;;;16.70;49.90;;;;;;5095601;28;20273;-63
2024/01/05 00:23:11;;;;;;;5.88;1.23;;;16.70;49.80;;;;;;5095286;28;20309;-63
2024/01/05 00:25:38;;;;;;;4.50;1.48;;;16.70;49.80;;;;;;5095183;28;20218;-63
2024/01/05 00:28:06;;;;;;;3.38;1.40;;;16.70;49.80;;;;;;5095407;28;20297;-63
2024/01/05 00:30:36;;;;;;;5.45;1.30;;;16.70;49.80;;;;;;5095211;28;20186;-63
2024/01/05 00:33:03;;;;;;;3.97;1.30;;;16.70;49.70;;;;;;5095338;28;20301;-63
2024/01/05 00:35:30;;;;;;;5.25;1.45;;;16.70;49.70;;;;;;5095624;28;20272;-62
2024/01/05 00:37:57;;;;;;;5.03;1.70;;;16.60;49.70;;;;;;5095078;28;20296;-63
2024/01/05 00:40:24;;;;;;;3.85;1.45;;;16.70;49.80;;;;;;5095235;28;20265;-62
2024/01/05 00:42:50;;;;;;;4.25;1.17;;;16.70;49.80;;;;;;5095224;28;20347;-63
2024/01/05 00:45:17;;;;;;;4.28;1.73;;;16.70;49.80;;;;;;5094624;28;20210;-63
2024/01/05 00:47:45;;;;;;;4.22;1.27;;;16.70;49.80;;;;;;5094825;28;20316;-63
2024/01/05 00:50:12;;;;;;;3.83;1.40;;;16.70;49.80;;;;;;5095017;28;20281;-63
2024/01/05 00:52:40;;;;;;;2.30;1.10;;;16.60;49.70;;;;;;5094812;28;20209;-63
2024/01/05 00:55:08;;;;;;;3.80;1.40;;;16.70;49.70;;;;;;5094576;28;20566;-63
2024/01/05 00:57:35;;;;;;;7.10;1.40;;;16.70;49.80;;;;;;5094699;28;20257;-63
2024/01/05 01:00:04;;;;;;;4.43;1.17;;;16.60;49.70;;;;;;5094555;28;20269;-63
2024/01/05 01:02:31;;;;;;;4.00;1.30;;;16.70;49.70;;;;;;5094739;28;20268;-63
2024/01/05 01:04:59;;;;;;;3.65;1.38;;;16.60;49.60;;;;;;5093863;28;20269;-63
2024/01/05 01:07:26;;;;;;;2.42;1.27;;;16.60;49.60;;;;;;5094019;28;20628;-63
2024/01/05 01:09:53;;;;;;;3.00;1.30;;;16.60;49.70;;;;;;5094647;28;20278;-63
2024/01/05 01:12:20;;;;;;;1.65;1.02;;;16.60;49.70;;;;;;5094596;28;20309;-63
2024/01/05 01:14:47;;;;;;;5.85;1.67;;;16.60;49.60;;;;;;5094192;28;20285;-63
2024/01/05 01:17:14;;;;;;;6.13;1.70;;;16.60;49.60;;;;;;5094371;28;20309;-63
2024/01/05 01:19:41;;;;;;;8.48;1.60;;;16.60;49.70;;;;;;5094421;28;20204;-63
2024/01/05 01:22:09;;;;;;;3.17;1.15;;;16.60;49.70;;;;;;5093745;28;20706;-63
2024/01/05 01:24:36;;;;;;;3.83;1.27;;;16.60;49.60;;;;;;5094129;28;20285;-63
2024/01/05 01:27:04;;;;;;;5.63;1.15;;;16.60;49.70;;;;;;5094254;28;20312;-62
2024/01/05 01:29:31;;;;;;;3.40;1.20;;;16.60;49.60;;;;;;5093941;28;20273;-63
2024/01/05 01:31:58;;;;;;;4.05;1.60;;;16.60;49.70;;;;;;5094165;28;20273;-63
2024/01/05 01:34:25;;;;;;;3.50;1.50;;;16.60;49.60;;;;;;5094154;28;20281;-63
2024/01/05 01:36:52;;;;;;;3.50;1.20;;;16.50;49.50;;;;;;5093844;28;20197;-63
2024/01/05 01:39:21;;;;;;;2.60;1.10;;;16.60;49.60;;;;;;5094045;28;20272;-62
2024/01/05 01:41:49;;;;;;;3.85;1.40;;;16.60;49.60;;;;;;5093658;28;20273;-63
2024/01/05 01:44:16;;;;;;;2.97;1.45;;;16.60;49.60;;;;;;5093269;28;20252;-63
2024/01/05 01:46:43;;;;;;;4.40;1.38;;;16.60;49.60;;;;;;5093798;28;20224;-63
2024/01/05 01:49:10;;;;;;;5.75;1.50;;;16.60;49.60;;;;;;5093590;28;20324;-62
2024/01/05 01:51:37;;;;;;;4.45;1.40;;;16.60;49.60;;;;;;5093761;28;20284;-63
2024/01/05 01:54:06;;;;;;;7.30;1.50;;;16.60;49.60;;;;;;5093924;28;20324;-63
2024/01/05 01:56:36;;;;;;;4.00;1.30;;;16.60;49.60;;;;;;5093797;28;20224;-63
2024/01/05 01:59:04;;;;;;;4.68;1.45;;;16.60;49.50;;;;;;5093617;28;20305;-63
2024/01/05 02:01:31;;;;;;;5.88;1.55;;;16.50;49.50;;;;;;5093393;28;20221;-63
2024/01/05 02:03:59;;;;;;;5.75;1.60;;;16.60;49.50;;;;;;5093797;28;20301;-62
2024/01/05 02:06:26;;;;;;;4.28;1.30;;;16.50;49.50;;;;;;5093124;28;20213;-63
2024/01/05 02:08:54;;;;;;;4.13;1.40;;;16.60;49.60;;;;;;5093416;28;20297;-63
2024/01/05 02:11:21;;;;;;;5.90;1.75;;;16.60;49.60;;;;;;5093391;28;20265;-62
2024/01/05 02:13:49;;;;;;;4.18;1.40;;;16.50;49.50;;;;;;5093301;28;20297;-63
2024/01/05 02:16:16;;;;;;;3.70;1.10;;;16.50;49.50;;;;;;5092572;28;20277;-62
2024/01/05 02:18:50;;;;;;;4.03;1.45;;;16.50;49.50;;;;;;5093372;28;20302;-63
2024/01/05 02:21:21;;;;;;;3.17;1.58;;;16.50;49.50;;;;;;5092488;28;20643;-62
2024/01/05 02:23:49;;;;;;;5.32;1.25;;;16.50;49.40;;;;;;5093075;28;20300;-63
2024/01/05 02:26:17;;;;;;;5.55;1.23;;;16.50;49.50;;;;;;5092730;28;20654;-63
2024/01/05 02:28:44;;;;;;;5.45;1.50;;;16.50;49.50;;;;;;5093010;28;20300;-63
2024/01/05 02:31:10;;;;;;;2.08;1.13;;;16.50;49.50;;;;;;5093037;28;20264;-63
2024/01/05 02:33:38;;;;;;;3.38;1.30;;;16.50;49.50;;;;;;5093176;28;20311;-62
2024/01/05 02:36:06;;;;;;;3.30;1.27;;;16.50;49.50;;;;;;5092732;28;20273;-63
2024/01/05 02:38:33;;;;;;;4.45;1.30;;;16.50;49.40;;;;;;5092650;28;20304;-62
2024/01/05 02:41:01;;;;;;;4.15;1.45;;;16.50;49.40;;;;;;5092992;28;20193;-63
2024/01/05 02:43:28;;;;;;;6.93;1.30;;;16.50;49.40;;;;;;5092185;28;20260;-62
2024/01/05 02:45:55;;;;;;;4.97;1.50;;;16.50;49.50;;;;;;5092814;28;20305;-62
2024/01/05 02:48:22;;;;;;;6.25;1.30;;;16.50;49.40;;;;;;5092509;28;20312;-63
2024/01/05 02:50:49;;;;;;;4.95;1.23;;;16.50;49.40;;;;;;5092493;28;20284;-63
2024/01/05 02:53:16;;;;;;;4.40;1.33;;;16.50;49.40;;;;;;5092661;28;20304;-63
2024/01/05 02:55:43;;;;;;;6.15;1.42;;;16.50;49.30;;;;;;5090955;28;20205;-63
2024/01/05 02:58:11;;;;;;;4.47;1.83;;;16.50;49.30;;;;;;5080961;28;20241;-63
2024/01/05 03:00:38;;;;;;;4.82;1.23;;;16.50;49.30;;;;;;5072409;28;20278;-62
2024/01/05 03:03:05;;;;;;;5.50;1.35;;;16.50;49.30;;;;;;5072495;28;20301;-62
2024/01/05 03:05:32;;;;;;;6.15;1.65;;;16.50;49.30;;;;;;5072250;28;20186;-63
2024/01/05 03:08:00;;;;;;;4.20;1.05;;;16.50;49.30;;;;;;5071987;28;20317;-63
2024/01/05 03:10:26;;;;;;;4.68;1.35;;;16.50;49.30;;;;;;5072548;28;20329;-63
2024/01/05 03:12:53;;;;;;;5.47;1.42;;;16.50;49.30;;;;;;5071985;28;20221;-62
2024/01/05 03:15:22;;;;;;;3.88;1.30;;;16.50;49.30;;;;;;5071922;28;20278;-63
2024/01/05 03:17:50;;;;;;;6.05;1.42;;;16.50;49.30;;;;;;5072023;28;20254;-63
2024/01/05 03:20:17;;;;;;;2.97;1.23;;;16.50;49.30;;;;;;5071772;28;20186;-63
2024/01/05 03:22:44;;;;;;;3.95;1.42;;;16.40;49.20;;;;;;5072226;28;20233;-63
2024/01/05 03:25:11;;;;;;;2.92;1.20;;;16.50;49.30;;;;;;5072028;28;20282;-63
2024/01/05 03:27:38;;;;;;;4.93;1.40;;;16.40;49.30;;;;;;5072224;28;20230;-63
2024/01/05 03:30:07;;;;;;;2.85;1.02;;;16.40;49.20;;;;;;5076395;28;20269;-63
2024/01/05 03:32:35;;;;;;;3.20;1.20;;;16.40;49.20;;;;;;5076266;28;20261;-62
2024/01/05 03:35:02;;;;;;;3.13;1.20;;;16.40;49.20;;;;;;5076010;28;20274;-63
2024/01/05 03:37:29;;;;;;;5.68;1.40;;;16.40;49.20;;;;;;5076141;28;20301;-63
2024/01/05 03:39:56;;;;;;;3.20;1.40;;;16.40;49.20;;;;;;5076225;28;20289;-63
2024/01/05 03:42:24;;;;;;;3.13;1.40;;;16.40;49.20;;;;;;5075659;28;20218;-63
2024/01/05 03:44:50;;;;;;;5.82;1.63;;;16.40;49.20;;;;;;5076032;28;20269;-63
2024/01/05 03:47:17;;;;;;;5.05;1.40;;;16.40;49.20;;;;;;5075357;28;20783;-63
2024/01/05 03:49:45;;;;;;;5.88;1.27;;;16.40;49.10;;;;;;5075387;28;20222;-63
2024/01/05 03:52:12;;;;;;;3.58;1.50;;;16.40;48.50;;;;;;5075765;28;20198;-63
2024/01/05 03:54:39;;;;;;;7.28;1.58;;;16.40;49.10;;;;;;5075839;28;20289;-63
2024/01/05 03:57:06;;;;;;;4.85;1.58;;;16.40;49.10;;;;;;5074951;28;20783;-62
2024/01/05 03:59:33;;;;;;;5.20;1.33;;;16.40;49.10;;;;;;5075819;28;20289;-63
2024/01/05 04:02:00;;;;;;;3.90;1.20;;;16.40;49.10;;;;;;5075566;28;20575;-63
2024/01/05 04:04:27;;;;;;;5.47;1.58;;;16.40;49.10;;;;;;5075350;28;20606;-63
2024/01/05 04:06:56;;;;;;;7.32;1.42;;;16.40;49.10;;;;;;5075198;28;20268;-63
2024/01/05 04:09:23;;;;;;;4.93;1.30;;;16.40;49.10;;;;;;5075602;28;20210;-63
2024/01/05 04:11:50;;;;;;;4.05;1.40;;;16.40;49.10;;;;;;5075155;28;20222;-63
2024/01/05 04:14:17;;;;;;;4.90;1.38;;;16.40;49.00;;;;;;5075398;28;20309;-63
2024/01/05 04:16:43;;;;;;;3.55;1.20;;;16.40;49.10;;;;;;5075389;28;20189;-63
2024/01/05 04:19:11;;;;;;;3.58;1.30;;;16.40;49.00;;;;;;5074982;28;20302;-62
2024/01/05 04:21:37;;;;;;;4.55;1.52;;;16.40;49.10;;;;;;5075034;28;20623;-63
2024/01/05 04:24:06;;;;;;;4.07;1.10;;;16.40;49.00;;;;;;5075574;28;20700;-62
2024/01/05 04:26:33;;;;;;;5.63;1.20;;;16.40;49.00;;;;;;5074775;28;20301;-63
2024/01/05 04:29:00;;;;;;;3.03;1.30;;;16.40;49.00;;;;;;5075256;28;20306;-63
2024/01/05 04:31:27;;;;;;;6.05;1.90;;;16.40;49.00;;;;;;5075089;28;20270;-63
2024/01/05 04:33:55;;;;;;;2.40;1.10;;;16.30;49.00;;;;;;5074833;28;20219;-63
2024/01/05 04:36:22;;;;;;;3.42;1.38;;;16.40;49.00;;;;;;5074828;28;20740;-63
2024/01/05 04:38:49;;;;;;;4.03;1.30;;;16.30;48.90;;;;;;5074879;28;20302;-63
2024/01/05 04:41:18;;;;;;;4.78;1.40;;;16.40;49.00;;;;;;5073984;28;20213;-63
2024/01/05 04:43:45;;;;;;;3.67;1.30;;;16.30;48.90;;;;;;5074582;28;20301;-63
2024/01/05 04:46:12;;;;;;;2.65;1.10;;;16.30;48.90;;;;;;5074922;28;20695;-63
2024/01/05 04:48:39;;;;;;;4.15;1.17;;;16.30;48.90;;;;;;5073992;28;20241;-62
2024/01/05 04:51:06;;;;;;;4.38;1.38;;;16.30;48.80;;;;;;5074393;28;20203;-62
2024/01/05 04:53:33;;;;;;;3.28;1.23;;;16.30;48.90;;;;;;5074602;28;20225;-62
2024/01/05 04:56:00;;;;;;;4.38;1.13;;;16.30;48.90;;;;;;5074332;28;20266;-63
2024/01/05 04:58:28;;;;;;;6.72;1.77;;;16.30;48.90;;;;;;5074814;28;20313;-63
2024/01/05 05:00:56;;;;;;;7.80;1.30;;;16.30;48.90;;;;;;5074458;28;20273;-63
2024/01/05 05:03:24;;;;;;;2.85;1.25;;;16.30;48.80;;;;;;5074461;28;20269;-62
2024/01/05 05:05:51;;;;;;;2.55;1.20;;;16.30;48.80;;;;;;5074557;28;20198;-63
2024/01/05 05:08:18;;;;;;;4.80;1.25;;;16.30;48.80;;;;;;5074354;28;20317;-62
2024/01/05 05:10:45;;;;;;;4.47;1.20;;;16.30;48.80;;;;;;5074287;28;20266;-62
2024/01/05 05:13:12;;;;;;;2.83;1.15;;;16.30;48.80;;;;;;5074434;28;20303;-63
2024/01/05 05:15:41;;;;;;;6.03;1.15;;;16.30;48.80;;;;;;5074390;28;20187;-62
2024/01/05 05:18:08;;;;;;;4.65;1.10;;;16.30;48.80;;;;;;5073961;28;20246;-62
2024/01/05 05:20:35;;;;;;;1.85;1.02;;;16.30;48.80;;;;;;5074309;28;20277;-63
2024/01/05 05:23:02;;;;;;;2.33;1.00;;;16.30;48.80;;;;;;5074189;28;20321;-63
2024/01/05 05:25:29;;;;;;;3.15;1.13;;;16.30;48.80;;;;;;5073896;28;20186;-63
2024/01/05 05:27:56;;;;;;;3.30;1.00;;;16.30;48.80;;;;;;5073938;28;20230;-63
2024/01/05 05:30:23;;;;;;;9.73;1.50;;;16.30;48.80;;;;;;5074169;28;20275;-63
2024/01/05 05:32:51;;;;;;;3.13;1.02;;;16.30;48.70;;;;;;5073524;28;20225;-63
2024/01/05 05:35:18;;;;;;;3.25;1.38;;;16.30;48.70;;;;;;5074076;28;20199;-62
2024/01/05 05:37:45;;;;;;;3.72;1.13;;;16.30;48.70;;;;;;5073589;28;20297;-63
2024/01/05 05:40:13;;;;;;;3.45;1.15;;;16.30;48.80;;;;;;5073628;28;20618;-62
2024/01/05 05:42:40;;;;;;;6.80;1.50;;;16.30;48.70;;;;;;5073432;28;20225;-61
2024/01/05 05:45:08;;;;;;;2.78;1.05;;;16.30;48.80;;;;;;5073815;28;20187;-63
2024/01/05 05:47:35;;;;;;;3.63;1.20;;;16.30;48.70;;;;;;5072725;28;20237;-63
2024/01/05 05:50:05;;;;;;;6.18;1.50;;;16.30;48.70;;;;;;5073327;28;20706;-62
2024/01/05 05:52:34;;;;;;;3.75;1.30;;;16.30;48.80;;;;;;5073047;28;20696;-62
2024/01/05 05:55:01;;;;;;;3.65;1.15;;;16.20;48.70;;;;;;5072986;28;20199;-63
2024/01/05 05:57:29;;;;;;;3.97;1.30;;;16.20;48.70;;;;;;5073446;28;20274;-62
2024/01/05 05:59:56;;;;;;;4.70;1.40;;;16.20;48.70;;;;;;5073251;28;20202;-62
2024/01/05 06:02:23;;;;;;;3.60;1.33;;;16.20;48.70;;;;;;5073061;28;20269;-63
2024/01/05 06:04:50;;;;;;;2.88;1.00;;;16.20;48.70;;;;;;5073315;28;20277;-63
2024/01/05 06:07:18;;;;;;;3.55;1.35;;;16.20;48.70;;;;;;5073242;28;20231;-62
2024/01/05 06:09:45;;;;;;;2.72;1.10;;;16.20;48.70;;;;;;5073004;28;20277;-63
2024/01/05 06:12:12;;;;;;;3.05;1.15;;;16.20;48.70;;;;;;5072778;28;20187;-62
2024/01/05 06:14:39;;;;;;;3.10;1.35;;;16.20;48.60;;;;;;5073230;28;20198;-63
2024/01/05 06:17:07;;;;;;;2.70;1.20;;;16.20;48.60;;;;;;5072912;28;20270;-63
2024/01/05 06:19:33;;;;;;;5.38;1.20;;;16.20;48.70;;;;;;5073097;28;20301;-62
2024/01/05 06:22:00;;;;;;;2.35;1.52;;;16.20;48.60;;;;;;5073039;28;20273;-62
2024/01/05 06:24:29;;;;;;;3.70;1.30;;;16.20;48.60;;;;;;5072411;28;20602;-62
2024/01/05 06:26:56;;;;;;;4.10;1.20;;;16.20;48.60;;;;;;5072556;28;20544;-63
2024/01/05 06:29:23;;;;;;;3.63;1.10;;;16.20;48.60;;;;;;5072684;28;20791;-62
2024/01/05 06:31:50;;;;;;;2.88;1.10;;;16.20;48.60;;;;;;5072590;28;20278;-61
2024/01/05 06:34:17;;;;;;;3.78;1.10;;;16.20;48.60;;;;;;5072810;28;20210;-62
2024/01/05 06:36:44;;;;;;;3.33;1.05;;;16.20;48.60;;;;;;5072716;28;20265;-63
2024/01/05 06:39:11;;;;;;;2.05;1.20;;;16.20;48.50;;;;;;5072419;28;20319;-63
2024/01/05 06:41:39;;;;;;;2.55;1.20;;;16.20;48.60;;;;;;5072650;28;20281;-63
2024/01/05 06:44:06;;;;;;;3.50;1.27;;;16.20;49.20;;;;;;5072501;28;20214;-62
2024/01/05 06:46:33;;;;;;;3.30;1.13;;;16.20;48.50;;;;;;5072427;28;20270;-62
2024/01/05 06:49:00;;;;;;;3.35;1.10;;;16.20;48.70;;;;;;5071896;28;20242;-63
2024/01/05 06:51:29;;;;;;;3.17;1.20;;;16.20;48.60;;;;;;5072370;28;20195;-62
2024/01/05 06:53:56;;;;;;;3.80;0.93;;;16.20;48.50;;;;;;5072241;28;20254;-63
2024/01/05 06:56:24;;;;;;;3.55;1.20;;;16.20;48.50;;;;;;5072198;28;20191;-62
2024/01/05 06:58:52;;;;;;;2.70;1.15;;;16.20;48.50;;;;;;5072462;28;20301;-63
2024/01/05 07:01:19;;;;;;;2.10;1.00;;;16.20;48.50;;;;;;5072144;28;20277;-62
2024/01/05 07:03:46;;;;;;;2.35;1.08;;;16.20;48.50;;;;;;5071817;28;20305;-63
2024/01/05 07:06:13;;;;;;;3.05;1.10;;;16.20;48.50;;;;;;5072174;28;20645;-63
2024/01/05 07:08:41;;;;;;;1.95;0.90;;;16.20;48.50;;;;;;5071805;28;20242;-63
2024/01/05 07:11:09;;;;;;;2.92;1.20;;;16.20;48.50;;;;;;5072051;28;20191;-62
2024/01/05 07:13:36;;;;;;;4.05;1.08;;;16.20;48.50;;;;;;5072239;28;20241;-63
2024/01/05 07:16:05;;;;;;;2.78;1.25;;;16.20;48.50;;;;;;5071931;28;20265;-63
2024/01/05 07:18:32;;;;;;;1.60;1.00;;;16.10;48.40;;;;;;5071862;28;20221;-62
2024/01/05 07:21:04;;;;;;;2.15;1.20;;;16.10;48.40;;;;;;5072308;28;20191;-63
2024/01/05 07:23:31;;;;;;;2.95;1.17;;;16.10;48.40;;;;;;5071898;28;20318;-62
2024/01/05 07:26:01;;;;;;;5.03;1.23;;;16.10;48.40;;;;;;5072228;28;20270;-62
2024/01/05 07:28:28;;;;;;;1.92;1.17;;;16.10;48.40;;;;;;5072102;28;20230;-62
2024/01/05 07:30:55;;;;;;;4.53;1.20;;;16.10;48.40;;;;;;5071823;28;20283;-63
2024/01/05 07:33:23;;;;;;;2.65;1.10;;;16.10;48.40;;;;;;5072096;28;20215;-63
2024/01/05 07:35:50;;;;;;;6.65;1.27;;;16.10;48.30;;;;;;5072091;28;20282;-62
2024/01/05 07:38:18;;;;;;;2.78;1.23;;;16.10;48.40;;;;;;5071805;28;20305;-63
2024/01/05 07:40:45;;;;;;;3.78;1.10;;;16.10;48.30;;;;;;5071644;28;20202;-63
2024/01/05 07:43:13;;;;;;;2.25;1.17;;;16.10;48.30;;;;;;5071952;28;20257;-63
2024/01/05 07:45:40;;;;;;;2.22;1.05;;;16.10;48.40;;;;;;5071763;28;20278;-62
2024/01/05 07:48:07;;;;;;;2.90;1.20;;;16.10;48.30;;;;;;5071592;28;20327;-63
2024/01/05 07:50:35;;;;;;;2.25;1.05;;;16.10;48.30;;;;;;5071960;28;20281;-63
2024/01/05 07:53:03;;;;;;;4.88;1.17;;;16.10;48.30;;;;;;5071854;28;20214;-63
2024/01/05 07:55:30;;;;;;;4.03;1.20;;;16.10;48.20;;;;;;5087702;28;20572;-61
2024/01/05 07:57:57;;;;;;;2.47;1.00;;;16.10;48.40;;;;;;5079012;28;20310;-63
2024/01/05 08:00:24;;;;;;;3.50;1.20;;;16.20;48.30;;;;;;5089370;28;20232;-63
2024/01/05 08:02:51;;;;;;;3.53;1.02;;;16.10;48.20;;;;;;5091302;28;20309;-63
2024/01/05 08:05:18;;;;;;;4.40;1.52;;;16.20;48.30;;;;;;5091819;28;20197;-64
2024/01/05 08:07:46;;;;;;;5.82;1.30;;;16.20;48.20;;;;;;5071015;28;20310;-63
2024/01/05 08:10:13;;;;;;;4.53;1.20;;;16.20;48.20;;;;;;5078962;28;20198;-62
2024/01/05 08:12:40;;;;;;;3.40;1.05;;;16.20;48.10;;;;;;5090370;28;20273;-62
2024/01/05 08:15:08;;;;;;;4.20;1.50;;;16.20;48.10;;;;;;5088375;28;20609;-63
2024/01/05 08:17:35;;;;;;;4.47;0.90;;;16.20;48.20;;;;;;5075867;28;20290;-63
2024/01/05 08:20:02;;;;;;;2.03;1.15;;;16.30;48.30;;;;;;5091756;28;20297;-63
2024/01/05 08:22:29;;;;;;;3.65;1.48;;;16.30;48.40;;;;;;5094525;28;20190;-63
2024/01/05 08:24:58;;;;;;;2.30;0.88;;;16.30;48.30;;;;;;5094584;28;20297;-63
2024/01/05 08:27:25;;;;;;;3.38;1.38;;;16.30;48.20;;;;;;5094613;28;20188;-62
2024/01/05 08:29:52;;;;;;;3.55;1.10;;;16.30;48.30;;;;;;5094410;28;20300;-62
2024/01/05 08:32:19;;;;;;;3.60;1.13;;;16.30;48.30;;;;;;5094987;28;20265;-62
2024/01/05 08:34:46;;;;;;;2.17;1.00;;;16.40;48.40;;;;;;5094991;28;20300;-63
2024/01/05 08:37:13;;;;;;;4.10;1.10;;;16.30;48.30;;;;;;5093677;28;20273;-63
2024/01/05 08:39:40;;;;;;;3.78;1.30;;;16.40;48.30;;;;;;5087704;28;20250;-63
2024/01/05 08:42:08;;;;;;;5.22;1.30;;;16.40;48.30;;;;;;5079654;28;20206;-62
2024/01/05 08:44:36;;;;;;;4.80;1.33;;;16.40;48.40;;;;;;5094501;28;20580;-63
2024/01/05 08:47:03;;;;;;;5.32;1.70;;;16.40;48.40;;;;;;5094133;28;20277;-63
2024/01/05 08:49:30;;;;;;;2.78;1.10;;;16.40;48.40;;;;;;5071593;28;20859;-62
2024/01/05 08:51:57;;;;;;;2.65;1.00;;;16.40;48.50;;;;;;5074408;28;20290;-63
2024/01/05 08:54:24;;;;;;;4.18;1.00;;;16.50;48.40;;;;;;5068768;28;20305;-63
2024/01/05 08:56:51;;;;;;;4.55;1.30;;;16.50;48.40;;;;;;5071207;28;20294;-62
2024/01/05 08:59:20;;;;;;;5.43;1.08;;;16.50;48.40;;;;;;5072065;28;20218;-63
2024/01/05 09:01:47;;;;;;;2.33;1.20;;;16.50;49.00;;;;;;5073615;28;20273;-62
2024/01/05 09:04:15;;;;;;;2.13;1.20;;;16.50;48.40;;;;;;5057650;28;20258;-63
2024/01/05 09:06:42;;;;;;;2.67;1.10;;;16.50;48.40;;;;;;5053775;28;20807;-62
2024/01/05 09:09:10;;;;;;;4.60;1.23;;;16.50;48.40;;;;;;5054037;28;20293;-62
2024/01/05 09:11:39;;;;;;;5.40;1.13;;;16.50;48.30;;;;;;5053608;28;20192;-62
2024/01/05 09:14:06;;;;;;;2.83;1.15;;;16.50;48.30;;;;;;5054541;28;20212;-63
2024/01/05 09:16:35;;;;;;;4.10;1.20;;;16.50;48.20;;;;;;5054508;28;20192;-62
2024/01/05 09:19:02;;;;;;;1.95;1.08;;;16.50;48.30;;;;;;5067797;28;20735;-61
2024/01/05 09:21:29;;;;;;;3.58;1.17;;;16.50;48.30;;;;;;5053616;28;20287;-63
2024/01/05 09:23:56;;;;;;;2.80;1.20;;;16.50;48.10;;;;;;5053351;28;20216;-63
2024/01/05 09:26:22;;;;;;;3.78;1.10;;;16.60;48.20;;;;;;5057869;28;20282;-62
2024/01/05 09:28:50;;;;;;;6.10;1.27;;;16.60;48.30;;;;;;5063710;28;20261;-63
2024/01/05 09:31:17;;;;;;;3.20;1.38;;;16.60;48.10;;;;;;5070389;28;20286;-63
2024/01/05 09:33:49;;;;;;;4.97;1.20;;;16.60;48.10;;;;;;5053131;28;20725;-62
2024/01/05 09:36:16;;;;;;;3.33;1.30;;;16.60;48.10;;;;;;5053265;28;20280;-62
2024/01/05 09:38:43;;;;;;;3.97;1.45;;;16.60;48.20;;;;;;5053397;28;20302;-62
2024/01/05 09:41:13;;;;;;;5.93;1.10;;;16.60;48.10;;;;;;5053400;28;20615;-62
2024/01/05 09:43:43;;;;;;;3.22;1.20;;;16.60;48.10;;;;;;5056393;28;20223;-63
2024/01/05 09:46:10;;;;;;;4.43;1.20;;;16.60;48.10;;;;;;5053184;28;20195;-63
2024/01/05 09:48:38;;;;;;;2.72;1.15;;;16.60;48.10;;;;;;5070326;28;20225;-63
2024/01/05 09:51:08;;;;;;;3.00;1.20;;;16.60;48.10;;;;;;5088777;28;20842;-63
2024/01/05 09:53:35;;;;;;;1.92;0.80;;;16.70;48.20;;;;;;5083082;28;20309;-62
2024/01/05 09:56:05;;;;;;;3.35;1.27;;;16.70;48.20;;;;;;5086836;28;20286;-62
2024/01/05 09:58:33;;;;;;;5.38;1.17;;;16.70;48.20;;;;;;5071541;28;20749;-63
2024/01/05 10:01:05;;;;;;;5.07;1.30;;;16.70;48.20;;;;;;5072135;28;20255;-62
2024/01/05 10:03:33;;;;;;;4.05;1.50;;;16.70;48.20;;;;;;5077534;28;20248;-62
2024/01/05 10:06:00;;;;;;;2.85;1.30;;;16.70;48.20;;;;;;5092584;28;20191;-62
2024/01/05 10:08:29;;;;;;;4.25;1.27;;;16.70;48.20;;;;;;5092849;28;20332;-63
2024/01/05 10:10:58;;;;;;;3.92;1.20;;;16.70;48.20;;;;;;5092746;28;20662;-62
2024/01/05 10:13:26;;;;;;;5.60;1.15;;;16.70;48.20;;;;;;5092285;28;20214;-62
2024/01/05 10:15:54;;;;;;;2.05;1.00;;;16.70;48.20;;;;;;5092190;28;20594;-63
2024/01/05 10:18:22;;;;;;;3.42;1.13;;;16.70;48.10;;;;;;5092709;28;20221;-63
2024/01/05 10:20:49;;;;;;;4.25;1.20;;;16.70;48.20;;;;;;5092325;28;20285;-63
2024/01/05 10:23:17;;;;;;;4.63;1.67;;;16.70;48.10;;;;;;5092557;28;20277;-62
2024/01/05 10:25:51;;;;;;;3.13;1.15;;;16.80;48.10;;;;;;5092619;28;20217;-63
2024/01/05 10:28:25;;;;;;;4.25;1.10;;;16.80;47.90;;;;;;5092263;28;20236;-63
2024/01/05 10:30:52;;;;;;;2.13;0.95;;;16.80;48.20;;;;;;5092384;28;20665;-63
2024/01/05 10:33:20;;;;;;;4.75;1.52;;;16.80;48.20;;;;;;5091953;28;20232;-63
2024/01/05 10:35:47;;;;;;;15.35;1.40;;;16.80;48.20;;;;;;5092220;28;20197;-63
2024/01/05 10:38:15;;;;;;;2.58;1.10;;;16.80;48.10;;;;;;5091679;28;20277;-63
2024/01/05 10:40:42;;;;;;;2.17;1.10;;;16.80;48.20;;;;;;5092551;28;20285;-63
2024/01/05 10:43:12;;;;;;;4.03;1.30;;;16.80;48.20;;;;;;5094627;28;20273;-63
2024/01/05 10:45:40;;;;;;;4.72;1.02;;;16.80;48.30;;;;;;5091100;28;20190;-63
2024/01/05 10:48:09;;;;;;;2.70;0.90;;;16.80;48.20;;;;;;5081158;28;20217;-63
2024/01/05 10:50:37;;;;;;;2.30;0.90;;;16.80;48.30;;;;;;5107600;28;20765;-62
2024/01/05 10:53:08;;;;;;;1.55;1.08;;;16.80;48.20;;;;;;5077316;28;20281;-62
2024/01/05 10:55:36;;;;;;;2.45;0.90;;;16.80;48.20;;;;;;5059275;28;20202;-62
2024/01/05 10:58:04;;;;;;;2.47;1.00;;;16.80;48.20;;;;;;5073970;28;20290;-63
2024/01/05 11:00:32;;;;;;;3.35;0.90;;;16.70;48.20;;;;;;5072015;28;20309;-63
2024/01/05 11:03:09;;;;;;;3.78;1.10;;;16.80;48.40;;;;;;5072027;28;20182;-62
2024/01/05 11:05:39;;;;;;;1.83;0.80;;;16.80;48.30;;;;;;5071595;28;20214;-63
2024/01/05 11:08:07;;;;;;;1.50;0.90;;;16.80;48.30;;;;;;5071607;28;20260;-63
2024/01/05 11:10:46;;;;;;;3.15;1.10;;;16.80;48.30;;;;;;5071249;28;20249;-63
2024/01/05 11:13:32;;;;;;;2.15;0.90;;;16.80;48.20;;;;;;5070954;28;20249;-63
2024/01/05 11:16:34;;;;;;;2.65;0.90;;;16.80;48.30;;;;;;5071523;28;20198;-63
2024/01/05 11:19:22;;;;;;;3.10;0.90;;;16.80;48.30;;;;;;5071840;28;20313;-63
2024/01/05 11:21:55;;;;;;;2.17;1.02;;;16.80;48.50;;;;;;5070992;28;20300;-63
2024/01/05 11:24:23;;;;;;;1.33;0.93;;;16.80;48.40;;;;;;5071258;28;20724;-63
2024/01/05 11:26:50;;;;;;;2.47;0.95;;;16.80;48.50;;;;;;5071407;28;20218;-63
2024/01/05 11:29:50;;;;;;;2.45;1.10;;;16.80;48.50;;;;;;5071241;28;20317;-63
2024/01/05 11:32:37;;;;;;;3.38;1.13;;;16.80;48.50;;;;;;5071286;28;20198;-63
2024/01/05 11:35:26;;;;;;;2.10;0.82;;;16.80;48.30;;;;;;5071282;28;20218;-63
2024/01/05 11:37:53;;;;;;;2.00;0.98;;;16.80;48.30;;;;;;5071164;28;20285;-62
2024/01/05 11:40:28;;;;;;;1.60;0.90;;;16.80;48.90;;;;;;5071820;28;20221;-63
2024/01/05 11:42:57;;;;;;;2.95;1.00;;;16.80;48.30;;;;;;5071187;28;20191;-62
2024/01/05 11:45:48;;;;;;;1.92;0.75;;;16.80;48.30;;;;;;5071288;28;20218;-63
2024/01/05 11:48:47;;;;;;;2.95;1.10;;;16.80;48.30;;;;;;5081154;28;20224;-63
2024/01/05 11:51:15;;;;;;;1.38;0.70;;;16.80;48.20;;;;;;5095611;28;20221;-63
2024/01/05 11:53:44;;;;;;;1.73;1.00;;;16.80;48.30;;;;;;5106418;28;20719;-63
2024/01/05 11:56:15;;;;;;;1.63;1.10;;;16.80;48.30;;;;;;5115584;28;20193;-63
2024/01/05 11:58:43;;;;;;;5.03;1.08;;;16.80;48.30;;;;;;5115748;28;20296;-62
2024/01/05 12:01:11;;;;;;;2.15;1.15;;;16.80;48.30;;;;;;5115879;28;20189;-63
2024/01/05 12:03:39;;;;;;;2.35;0.90;;;16.80;48.20;;;;;;5115762;28;20366;-63
2024/01/05 12:06:09;;;;;;;3.58;1.05;;;16.80;48.20;;;;;;5115301;28;20192;-63
2024/01/05 12:08:36;;;;;;;3.38;1.15;;;16.80;48.20;;;;;;5115752;28;20189;-63
2024/01/05 12:11:05;;;;;;;5.20;1.10;;;16.90;48.30;;;;;;5115369;28;20280;-63
2024/01/05 12:13:33;;;;;;;4.05;1.17;;;16.80;48.20;;;;;;5114906;28;20196;-63
2024/01/05 12:16:02;;;;;;;1.90;1.10;;;16.80;48.20;;;;;;5115434;28;20217;-63
2024/01/05 12:18:30;;;;;;;1.05;0.90;;;16.90;48.30;;;;;;5105047;28;20546;-62
2024/01/05 12:20:58;;;;;;;2.05;0.90;;;16.90;48.40;;;;;;5094626;28;20225;-63
2024/01/05 12:23:28;;;;;;;3.38;1.17;;;16.80;48.20;;;;;;5094755;28;20269;-62
2024/01/05 12:26:03;;;;;;;1.80;1.02;;;16.90;49.00;;;;;;5094757;28;20327;-63
2024/01/05 12:28:31;;;;;;;2.33;0.93;;;16.90;48.50;;;;;;5093957;28;20682;-62
2024/01/05 12:30:58;;;;;;;4.97;2.58;;;16.90;48.50;;;;;;5094524;28;20595;-63
2024/01/05 12:33:26;;;;;;;4.68;3.20;;;16.90;48.40;;;;;;5094554;28;20269;-63
2024/01/05 12:35:53;;;;;;;9.38;6.53;;;16.90;48.40;;;;;;5094020;28;20628;-63
2024/01/05 12:38:24;;;;;;;9.50;5.53;;;16.90;48.40;;;;;;5094535;28;20196;-63
2024/01/05 12:40:52;;;;;;;14.45;11.02;;;16.90;48.40;;;;;;5094736;28;20240;-63
2024/01/05 12:43:19;;;;;;;14.43;11.35;;;16.90;48.50;;;;;;5093874;28;20189;-63
2024/01/05 12:45:50;;;;;;;19.42;17.38;;;17.00;48.50;;;;;;5094231;28;20229;-63
2024/01/05 12:48:17;;;;;;;17.98;13.93;;;17.00;48.50;;;;;;5086812;28;20218;-63
2024/01/05 12:50:45;;;;;;;15.32;12.80;;;17.00;48.50;;;;;;5066883;28;20234;-63